sensor_id;sensor_type;location;lat;lon;timestamp;temperature;humidity
42421;DHT22;28063;48.140;11.588;2023-08-07T00:14:07;13.00;92.10
42421;DHT22;28063;48.140;11.588;2023-08-07T00:16:33;13.00;92.40
42421;DHT22;28063;48.140;11.588;2023-08-07T00:18:58;13.00;92.60
42421;DHT22;28063;48.140;11.588;2023-08-07T00:21:24;12.90;92.90
42421;DHT22;28063;48.140;11.588;2023-08-07T00:23:50;12.90;93.20
42421;DHT22;28063;48.140;11.588;2023-08-07T00:26:16;12.80;93.10
42421;DHT22;28063;48.140;11.588;2023-08-07T00:28:42;12.90;93.10
42421;DHT22;28063;48.140;11.588;2023-08-07T00:31:07;12.80;93.20
42421;DHT22;28063;48.140;11.588;2023-08-07T00:33:33;12.70;93.40
42421;DHT22;28063;48.140;11.588;2023-08-07T00:35:59;12.80;93.30
42421;DHT22;28063;48.140;11.588;2023-08-07T00:38:24;12.70;93.40
42421;DHT22;28063;48.140;11.588;2023-08-07T00:40:50;12.70;93.80
42421;DHT22;28063;48.140;11.588;2023-08-07T00:43:16;12.70;94.00
42421;DHT22;28063;48.140;11.588;2023-08-07T00:45:43;12.60;94.60
42421;DHT22;28063;48.140;11.588;2023-08-07T00:48:09;12.50;94.80
42421;DHT22;28063;48.140;11.588;2023-08-07T00:50:36;12.40;95.10
42421;DHT22;28063;48.140;11.588;2023-08-07T00:53:02;12.30;95.20
42421;DHT22;28063;48.140;11.588;2023-08-07T00:55:28;12.20;95.70
42421;DHT22;28063;48.140;11.588;2023-08-07T00:57:55;12.10;96.40
42421;DHT22;28063;48.140;11.588;2023-08-07T01:00:21;12.10;97.00
42421;DHT22;28063;48.140;11.588;2023-08-07T01:02:47;12.00;97.60
42421;DHT22;28063;48.140;11.588;2023-08-07T01:05:16;11.90;98.00
42421;DHT22;28063;48.140;11.588;2023-08-07T01:07:43;11.80;98.50
42421;DHT22;28063;48.140;11.588;2023-08-07T01:10:09;11.70;99.00
42421;DHT22;28063;48.140;11.588;2023-08-07T01:12:42;11.70;99.40
42421;DHT22;28063;48.140;11.588;2023-08-07T01:15:14;11.60;99.90
42421;DHT22;28063;48.140;11.588;2023-08-07T01:17:42;11.60;99.90
42421;DHT22;28063;48.140;11.588;2023-08-07T01:20:10;11.50;99.90
42421;DHT22;28063;48.140;11.588;2023-08-07T01:22:36;11.40;99.90
42421;DHT22;28063;48.140;11.588;2023-08-07T01:25:02;11.30;99.90
42421;DHT22;28063;48.140;11.588;2023-08-07T01:27:50;11.40;99.90
42421;DHT22;28063;48.140;11.588;2023-08-07T01:30:29;11.30;99.90
42421;DHT22;28063;48.140;11.588;2023-08-07T01:33:09;11.30;99.90
42421;DHT22;28063;48.140;11.588;2023-08-07T01:35:41;11.30;99.90
42421;DHT22;28063;48.140;11.588;2023-08-07T01:38:08;11.20;99.90
42421;DHT22;28063;48.140;11.588;2023-08-07T01:40:36;11.20;99.90
42421;DHT22;28063;48.140;11.588;2023-08-07T01:43:03;11.20;99.90
42421;DHT22;28063;48.140;11.588;2023-08-07T01:45:29;11.20;99.90
42421;DHT22;28063;48.140;11.588;2023-08-07T01:47:55;11.20;99.90
42421;DHT22;28063;48.140;11.588;2023-08-07T01:50:21;11.10;99.90
42421;DHT22;28063;48.140;11.588;2023-08-07T01:52:47;11.00;99.90
42421;DHT22;28063;48.140;11.588;2023-08-07T01:55:14;11.10;99.90
42421;DHT22;28063;48.140;11.588;2023-08-07T01:57:40;11.00;99.90
42421;DHT22;28063;48.140;11.588;2023-08-07T02:00:06;11.00;99.90
42421;DHT22;28063;48.140;11.588;2023-08-07T02:02:34;10.90;99.90
42421;DHT22;28063;48.140;11.588;2023-08-07T02:04:59;10.90;99.90
42421;DHT22;28063;48.140;11.588;2023-08-07T02:07:25;10.90;99.90
42421;DHT22;28063;48.140;11.588;2023-08-07T02:09:51;10.90;99.90
42421;DHT22;28063;48.140;11.588;2023-08-07T02:12:16;10.90;99.90
42421;DHT22;28063;48.140;11.588;2023-08-07T02:14:42;10.90;99.90
42421;DHT22;28063;48.140;11.588;2023-08-07T02:17:08;10.90;99.90
42421;DHT22;28063;48.140;11.588;2023-08-07T02:19:33;10.90;99.90
42421;DHT22;28063;48.140;11.588;2023-08-07T02:21:59;10.90;99.90
42421;DHT22;28063;48.140;11.588;2023-08-07T02:24:25;10.90;99.90
42421;DHT22;28063;48.140;11.588;2023-08-07T02:26:51;10.90;99.90
42421;DHT22;28063;48.140;11.588;2023-08-07T02:29:16;11.00;99.90
42421;DHT22;28063;48.140;11.588;2023-08-07T02:31:42;10.90;99.90
42421;DHT22;28063;48.140;11.588;2023-08-07T02:34:08;11.00;99.90
42421;DHT22;28063;48.140;11.588;2023-08-07T02:36:33;11.00;99.90
42421;DHT22;28063;48.140;11.588;2023-08-07T02:38:59;11.00;99.90
42421;DHT22;28063;48.140;11.588;2023-08-07T02:41:25;11.10;99.90
42421;DHT22;28063;48.140;11.588;2023-08-07T02:43:50;11.10;99.90
42421;DHT22;28063;48.140;11.588;2023-08-07T02:46:16;11.10;99.90
42421;DHT22;28063;48.140;11.588;2023-08-07T02:48:43;11.10;99.90
42421;DHT22;28063;48.140;11.588;2023-08-07T02:51:09;11.10;99.90
42421;DHT22;28063;48.140;11.588;2023-08-07T02:53:35;11.20;99.90
42421;DHT22;28063;48.140;11.588;2023-08-07T02:56:01;11.20;99.90
42421;DHT22;28063;48.140;11.588;2023-08-07T02:58:26;11.20;99.90
42421;DHT22;28063;48.140;11.588;2023-08-07T03:00:52;11.20;99.90
42421;DHT22;28063;48.140;11.588;2023-08-07T03:03:17;11.20;99.90
42421;DHT22;28063;48.140;11.588;2023-08-07T03:05:50;11.20;99.90
42421;DHT22;28063;48.140;11.588;2023-08-07T03:08:16;11.20;99.90
42421;DHT22;28063;48.140;11.588;2023-08-07T03:10:42;11.20;99.90
42421;DHT22;28063;48.140;11.588;2023-08-07T03:13:07;11.20;99.90
42421;DHT22;28063;48.140;11.588;2023-08-07T03:15:33;11.30;99.90
42421;DHT22;28063;48.140;11.588;2023-08-07T03:17:59;11.30;99.90
42421;DHT22;28063;48.140;11.588;2023-08-07T03:20:24;11.30;99.90
42421;DHT22;28063;48.140;11.588;2023-08-07T03:22:50;11.30;99.90
42421;DHT22;28063;48.140;11.588;2023-08-07T03:25:16;11.40;99.90
42421;DHT22;28063;48.140;11.588;2023-08-07T03:27:43;11.40;99.90
42421;DHT22;28063;48.140;11.588;2023-08-07T03:30:09;11.40;99.90
42421;DHT22;28063;48.140;11.588;2023-08-07T03:32:35;11.50;99.90
42421;DHT22;28063;48.140;11.588;2023-08-07T03:35:00;11.50;99.90
42421;DHT22;28063;48.140;11.588;2023-08-07T03:37:26;11.50;99.90
42421;DHT22;28063;48.140;11.588;2023-08-07T03:39:52;11.50;99.90
42421;DHT22;28063;48.140;11.588;2023-08-07T03:42:17;11.50;99.90
42421;DHT22;28063;48.140;11.588;2023-08-07T03:44:43;11.50;99.90
42421;DHT22;28063;48.140;11.588;2023-08-07T03:47:09;11.50;99.90
42421;DHT22;28063;48.140;11.588;2023-08-07T03:49:34;11.50;99.90
42421;DHT22;28063;48.140;11.588;2023-08-07T03:52:00;11.50;99.90
42421;DHT22;28063;48.140;11.588;2023-08-07T03:54:26;11.50;99.90
42421;DHT22;28063;48.140;11.588;2023-08-07T03:56:51;11.60;99.90
42421;DHT22;28063;48.140;11.588;2023-08-07T03:59:17;11.50;99.90
42421;DHT22;28063;48.140;11.588;2023-08-07T04:01:43;11.50;99.90
42421;DHT22;28063;48.140;11.588;2023-08-07T04:04:09;11.60;99.90
42421;DHT22;28063;48.140;11.588;2023-08-07T04:06:34;11.60;99.90
42421;DHT22;28063;48.140;11.588;2023-08-07T04:09:00;11.60;99.90
42421;DHT22;28063;48.140;11.588;2023-08-07T04:11:26;11.60;99.80
42421;DHT22;28063;48.140;11.588;2023-08-07T04:13:52;11.70;99.60
42421;DHT22;28063;48.140;11.588;2023-08-07T04:16:18;11.70;99.20
42421;DHT22;28063;48.140;11.588;2023-08-07T04:18:44;11.80;99.30
42421;DHT22;28063;48.140;11.588;2023-08-07T04:21:09;11.70;99.30
42421;DHT22;28063;48.140;11.588;2023-08-07T04:23:35;11.80;98.90
42421;DHT22;28063;48.140;11.588;2023-08-07T04:26:01;11.70;98.40
42421;DHT22;28063;48.140;11.588;2023-08-07T04:28:29;11.70;98.20
42421;DHT22;28063;48.140;11.588;2023-08-07T04:30:55;11.80;98.60
42421;DHT22;28063;48.140;11.588;2023-08-07T04:33:21;11.80;97.90
42421;DHT22;28063;48.140;11.588;2023-08-07T04:35:47;11.90;97.80
42421;DHT22;28063;48.140;11.588;2023-08-07T04:38:14;11.80;97.70
42421;DHT22;28063;48.140;11.588;2023-08-07T04:40:46;11.80;97.40
42421;DHT22;28063;48.140;11.588;2023-08-07T04:43:16;11.80;97.60
42421;DHT22;28063;48.140;11.588;2023-08-07T04:45:42;11.90;97.00
42421;DHT22;28063;48.140;11.588;2023-08-07T04:48:10;11.80;97.00
42421;DHT22;28063;48.140;11.588;2023-08-07T04:50:37;11.80;97.10
42421;DHT22;28063;48.140;11.588;2023-08-07T04:53:04;11.90;96.80
42421;DHT22;28063;48.140;11.588;2023-08-07T04:55:30;11.90;96.60
42421;DHT22;28063;48.140;11.588;2023-08-07T04:57:57;11.90;96.80
42421;DHT22;28063;48.140;11.588;2023-08-07T05:00:23;11.90;96.70
42421;DHT22;28063;48.140;11.588;2023-08-07T05:02:48;12.00;96.50
42421;DHT22;28063;48.140;11.588;2023-08-07T05:05:15;12.00;96.00
42421;DHT22;28063;48.140;11.588;2023-08-07T05:07:41;12.00;96.00
42421;DHT22;28063;48.140;11.588;2023-08-07T05:10:08;12.00;95.60
42421;DHT22;28063;48.140;11.588;2023-08-07T05:12:34;12.10;95.60
42421;DHT22;28063;48.140;11.588;2023-08-07T05:14:59;12.10;95.00
42421;DHT22;28063;48.140;11.588;2023-08-07T05:17:25;12.10;95.10
42421;DHT22;28063;48.140;11.588;2023-08-07T05:19:51;12.20;94.90
42421;DHT22;28063;48.140;11.588;2023-08-07T05:22:17;12.20;94.80
42421;DHT22;28063;48.140;11.588;2023-08-07T05:24:42;12.20;94.80
42421;DHT22;28063;48.140;11.588;2023-08-07T05:27:10;12.20;94.50
42421;DHT22;28063;48.140;11.588;2023-08-07T05:29:37;12.30;94.10
42421;DHT22;28063;48.140;11.588;2023-08-07T05:32:10;12.30;94.20
42421;DHT22;28063;48.140;11.588;2023-08-07T05:34:36;12.20;94.10
42421;DHT22;28063;48.140;11.588;2023-08-07T05:37:01;12.20;93.70
42421;DHT22;28063;48.140;11.588;2023-08-07T05:39:27;12.30;93.80
42421;DHT22;28063;48.140;11.588;2023-08-07T05:41:53;12.30;93.80
42421;DHT22;28063;48.140;11.588;2023-08-07T05:44:20;12.30;93.80
42421;DHT22;28063;48.140;11.588;2023-08-07T05:46:48;12.30;93.60
42421;DHT22;28063;48.140;11.588;2023-08-07T05:49:13;12.30;93.10
42421;DHT22;28063;48.140;11.588;2023-08-07T05:51:39;12.30;93.30
42421;DHT22;28063;48.140;11.588;2023-08-07T05:54:05;12.40;92.80
42421;DHT22;28063;48.140;11.588;2023-08-07T05:56:30;12.30;92.80
42421;DHT22;28063;48.140;11.588;2023-08-07T05:58:56;12.40;92.80
42421;DHT22;28063;48.140;11.588;2023-08-07T06:01:21;12.40;92.90
42421;DHT22;28063;48.140;11.588;2023-08-07T06:03:47;12.40;93.00
42421;DHT22;28063;48.140;11.588;2023-08-07T06:06:14;12.40;92.90
42421;DHT22;28063;48.140;11.588;2023-08-07T06:08:39;12.40;92.80
42421;DHT22;28063;48.140;11.588;2023-08-07T06:11:05;12.40;92.30
42421;DHT22;28063;48.140;11.588;2023-08-07T06:13:34;12.50;92.50
42421;DHT22;28063;48.140;11.588;2023-08-07T06:15:59;12.50;92.30
42421;DHT22;28063;48.140;11.588;2023-08-07T06:18:25;12.50;92.10
42421;DHT22;28063;48.140;11.588;2023-08-07T06:20:51;12.60;92.10
42421;DHT22;28063;48.140;11.588;2023-08-07T06:23:16;12.60;91.80
42421;DHT22;28063;48.140;11.588;2023-08-07T06:25:43;12.70;91.70
42421;DHT22;28063;48.140;11.588;2023-08-07T06:28:08;12.70;91.50
42421;DHT22;28063;48.140;11.588;2023-08-07T06:30:34;12.80;91.50
42421;DHT22;28063;48.140;11.588;2023-08-07T06:32:59;12.90;91.00
42421;DHT22;28063;48.140;11.588;2023-08-07T06:35:25;13.00;90.70
42421;DHT22;28063;48.140;11.588;2023-08-07T06:37:51;13.20;90.20
42421;DHT22;28063;48.140;11.588;2023-08-07T06:40:16;13.40;90.00
42421;DHT22;28063;48.140;11.588;2023-08-07T06:42:42;13.50;89.40
42421;DHT22;28063;48.140;11.588;2023-08-07T06:45:08;13.60;88.10
42421;DHT22;28063;48.140;11.588;2023-08-07T06:47:34;13.80;88.20
42421;DHT22;28063;48.140;11.588;2023-08-07T06:49:59;14.00;86.60
42421;DHT22;28063;48.140;11.588;2023-08-07T06:52:25;14.10;85.80
42421;DHT22;28063;48.140;11.588;2023-08-07T06:54:51;14.30;85.40
42421;DHT22;28063;48.140;11.588;2023-08-07T06:57:17;14.80;83.30
42421;DHT22;28063;48.140;11.588;2023-08-07T06:59:43;14.90;82.50
42421;DHT22;28063;48.140;11.588;2023-08-07T07:02:09;14.80;82.10
42421;DHT22;28063;48.140;11.588;2023-08-07T07:04:35;14.90;81.00
42421;DHT22;28063;48.140;11.588;2023-08-07T07:07:02;14.70;80.90
42421;DHT22;28063;48.140;11.588;2023-08-07T07:09:28;14.70;81.80
42421;DHT22;28063;48.140;11.588;2023-08-07T07:11:54;14.70;80.30
42421;DHT22;28063;48.140;11.588;2023-08-07T07:14:21;14.60;80.40
42421;DHT22;28063;48.140;11.588;2023-08-07T07:16:47;14.70;81.20
42421;DHT22;28063;48.140;11.588;2023-08-07T07:19:13;14.90;79.50
42421;DHT22;28063;48.140;11.588;2023-08-07T07:21:39;15.00;78.40
42421;DHT22;28063;48.140;11.588;2023-08-07T07:24:05;15.20;78.70
42421;DHT22;28063;48.140;11.588;2023-08-07T07:26:31;15.50;77.60
42421;DHT22;28063;48.140;11.588;2023-08-07T07:28:57;15.80;75.90
42421;DHT22;28063;48.140;11.588;2023-08-07T07:31:23;15.90;73.90
42421;DHT22;28063;48.140;11.588;2023-08-07T07:33:49;16.00;73.70
42421;DHT22;28063;48.140;11.588;2023-08-07T07:36:18;16.10;72.00
42421;DHT22;28063;48.140;11.588;2023-08-07T07:38:47;16.20;72.00
42421;DHT22;28063;48.140;11.588;2023-08-07T07:41:16;16.30;71.70
42421;DHT22;28063;48.140;11.588;2023-08-07T07:43:42;16.40;71.70
42421;DHT22;28063;48.140;11.588;2023-08-07T07:46:08;16.60;69.90
42421;DHT22;28063;48.140;11.588;2023-08-07T07:48:34;16.60;69.90
42421;DHT22;28063;48.140;11.588;2023-08-07T07:51:01;16.50;70.40
42421;DHT22;28063;48.140;11.588;2023-08-07T07:53:27;16.50;70.90
42421;DHT22;28063;48.140;11.588;2023-08-07T07:55:53;16.30;69.30
42421;DHT22;28063;48.140;11.588;2023-08-07T07:58:19;16.10;70.40
42421;DHT22;28063;48.140;11.588;2023-08-07T08:00:45;16.00;71.60
42421;DHT22;28063;48.140;11.588;2023-08-07T08:03:11;15.90;71.40
42421;DHT22;28063;48.140;11.588;2023-08-07T08:05:38;15.70;72.40
42421;DHT22;28063;48.140;11.588;2023-08-07T08:08:06;15.60;72.20
42421;DHT22;28063;48.140;11.588;2023-08-07T08:13:01;15.50;71.90
42421;DHT22;28063;48.140;11.588;2023-08-07T08:15:29;15.40;73.50
42421;DHT22;28063;48.140;11.588;2023-08-07T08:17:55;15.30;73.70
42421;DHT22;28063;48.140;11.588;2023-08-07T08:20:20;15.20;73.80
42421;DHT22;28063;48.140;11.588;2023-08-07T08:22:47;15.10;74.20
42421;DHT22;28063;48.140;11.588;2023-08-07T08:25:13;15.00;74.00
42421;DHT22;28063;48.140;11.588;2023-08-07T08:27:39;14.90;74.80
42421;DHT22;28063;48.140;11.588;2023-08-07T08:30:05;14.90;74.90
42421;DHT22;28063;48.140;11.588;2023-08-07T08:32:31;14.90;75.20
42421;DHT22;28063;48.140;11.588;2023-08-07T08:34:57;15.00;74.20
42421;DHT22;28063;48.140;11.588;2023-08-07T08:37:23;14.90;74.80
42421;DHT22;28063;48.140;11.588;2023-08-07T08:39:49;15.00;74.50
42421;DHT22;28063;48.140;11.588;2023-08-07T08:42:15;15.10;75.00
42421;DHT22;28063;48.140;11.588;2023-08-07T08:44:51;15.20;74.80
42421;DHT22;28063;48.140;11.588;2023-08-07T08:47:18;15.20;74.80
42421;DHT22;28063;48.140;11.588;2023-08-07T08:49:47;15.20;73.80
42421;DHT22;28063;48.140;11.588;2023-08-07T08:52:13;15.20;73.00
42421;DHT22;28063;48.140;11.588;2023-08-07T08:54:43;15.10;73.20
42421;DHT22;28063;48.140;11.588;2023-08-07T08:57:11;15.10;73.90
42421;DHT22;28063;48.140;11.588;2023-08-07T08:59:38;15.00;74.40
42421;DHT22;28063;48.140;11.588;2023-08-07T09:02:04;15.10;73.80
42421;DHT22;28063;48.140;11.588;2023-08-07T09:04:30;15.30;73.00
42421;DHT22;28063;48.140;11.588;2023-08-07T09:06:56;15.40;72.70
42421;DHT22;28063;48.140;11.588;2023-08-07T09:09:22;15.50;72.20
42421;DHT22;28063;48.140;11.588;2023-08-07T09:11:48;15.60;72.00
42421;DHT22;28063;48.140;11.588;2023-08-07T09:14:19;15.60;72.00
42421;DHT22;28063;48.140;11.588;2023-08-07T09:16:50;15.50;72.30
42421;DHT22;28063;48.140;11.588;2023-08-07T09:19:15;15.30;72.80
42421;DHT22;28063;48.140;11.588;2023-08-07T09:21:41;15.20;73.60
42421;DHT22;28063;48.140;11.588;2023-08-07T09:24:07;15.10;73.90
42421;DHT22;28063;48.140;11.588;2023-08-07T09:26:33;15.20;73.80
42421;DHT22;28063;48.140;11.588;2023-08-07T09:28:59;15.20;73.80
42421;DHT22;28063;48.140;11.588;2023-08-07T09:31:26;15.30;73.50
42421;DHT22;28063;48.140;11.588;2023-08-07T09:33:52;15.40;73.60
42421;DHT22;28063;48.140;11.588;2023-08-07T09:36:18;15.50;72.40
42421;DHT22;28063;48.140;11.588;2023-08-07T09:38:49;15.60;72.40
42421;DHT22;28063;48.140;11.588;2023-08-07T09:41:18;15.70;71.80
42421;DHT22;28063;48.140;11.588;2023-08-07T09:43:45;15.70;71.90
42421;DHT22;28063;48.140;11.588;2023-08-07T09:46:10;15.90;71.40
42421;DHT22;28063;48.140;11.588;2023-08-07T09:48:43;16.20;71.60
42421;DHT22;28063;48.140;11.588;2023-08-07T09:51:09;16.50;70.20
42421;DHT22;28063;48.140;11.588;2023-08-07T09:53:35;16.80;70.00
42421;DHT22;28063;48.140;11.588;2023-08-07T09:56:02;17.20;69.50
42421;DHT22;28063;48.140;11.588;2023-08-07T09:58:29;17.50;68.90
42421;DHT22;28063;48.140;11.588;2023-08-07T10:03:25;17.80;65.80
42421;DHT22;28063;48.140;11.588;2023-08-07T10:05:51;18.00;65.50
42421;DHT22;28063;48.140;11.588;2023-08-07T10:08:17;18.00;65.50
42421;DHT22;28063;48.140;11.588;2023-08-07T10:10:43;18.00;65.20
42421;DHT22;28063;48.140;11.588;2023-08-07T10:13:12;17.90;65.10
42421;DHT22;28063;48.140;11.588;2023-08-07T10:15:39;17.90;65.40
42421;DHT22;28063;48.140;11.588;2023-08-07T10:18:06;18.10;66.00
42421;DHT22;28063;48.140;11.588;2023-08-07T10:20:32;18.30;64.80
42421;DHT22;28063;48.140;11.588;2023-08-07T10:23:02;18.50;63.40
42421;DHT22;28063;48.140;11.588;2023-08-07T10:25:30;18.60;63.30
42421;DHT22;28063;48.140;11.588;2023-08-07T10:27:57;18.70;63.90
42421;DHT22;28063;48.140;11.588;2023-08-07T10:30:26;19.20;62.30
42421;DHT22;28063;48.140;11.588;2023-08-07T10:32:52;19.40;60.50
42421;DHT22;28063;48.140;11.588;2023-08-07T10:35:32;19.60;59.70
42421;DHT22;28063;48.140;11.588;2023-08-07T10:38:10;19.90;58.70
42421;DHT22;28063;48.140;11.588;2023-08-07T10:43:24;20.10;58.00
42421;DHT22;28063;48.140;11.588;2023-08-07T10:45:50;19.90;57.80
42421;DHT22;28063;48.140;11.588;2023-08-07T10:48:20;19.80;57.80
42421;DHT22;28063;48.140;11.588;2023-08-07T10:50:58;19.40;58.90
42421;DHT22;28063;48.140;11.588;2023-08-07T10:53:32;19.40;59.10
42421;DHT22;28063;48.140;11.588;2023-08-07T10:56:02;19.60;58.70
42421;DHT22;28063;48.140;11.588;2023-08-07T10:58:35;19.80;58.10
42421;DHT22;28063;48.140;11.588;2023-08-07T11:03:57;19.80;57.60
42421;DHT22;28063;48.140;11.588;2023-08-07T11:06:29;19.50;58.10
42421;DHT22;28063;48.140;11.588;2023-08-07T11:08:57;19.40;58.80
42421;DHT22;28063;48.140;11.588;2023-08-07T11:11:24;19.70;59.70
42421;DHT22;28063;48.140;11.588;2023-08-07T11:13:52;20.20;58.50
42421;DHT22;28063;48.140;11.588;2023-08-07T11:16:18;20.40;57.30
42421;DHT22;28063;48.140;11.588;2023-08-07T11:18:47;20.50;57.00
42421;DHT22;28063;48.140;11.588;2023-08-07T11:21:13;20.60;57.20
42421;DHT22;28063;48.140;11.588;2023-08-07T11:23:39;20.60;56.10
42421;DHT22;28063;48.140;11.588;2023-08-07T11:26:06;20.60;55.90
42421;DHT22;28063;48.140;11.588;2023-08-07T11:28:32;20.40;55.70
42421;DHT22;28063;48.140;11.588;2023-08-07T11:30:58;20.10;55.70
42421;DHT22;28063;48.140;11.588;2023-08-07T11:33:25;19.70;56.60
42421;DHT22;28063;48.140;11.588;2023-08-07T11:38:37;19.00;57.70
42421;DHT22;28063;48.140;11.588;2023-08-07T11:41:05;18.40;59.20
42421;DHT22;28063;48.140;11.588;2023-08-07T11:43:34;17.80;61.20
42421;DHT22;28063;48.140;11.588;2023-08-07T11:46:05;17.50;63.00
42421;DHT22;28063;48.140;11.588;2023-08-07T11:48:39;17.20;63.80
42421;DHT22;28063;48.140;11.588;2023-08-07T11:51:06;17.10;64.80
42421;DHT22;28063;48.140;11.588;2023-08-07T11:53:34;17.20;65.70
42421;DHT22;28063;48.140;11.588;2023-08-07T11:56:02;17.40;65.80
42421;DHT22;28063;48.140;11.588;2023-08-07T11:58:41;17.70;65.40
42421;DHT22;28063;48.140;11.588;2023-08-07T12:01:13;18.00;64.30
42421;DHT22;28063;48.140;11.588;2023-08-07T12:03:49;18.50;62.70
42421;DHT22;28063;48.140;11.588;2023-08-07T12:06:15;18.90;60.10
42421;DHT22;28063;48.140;11.588;2023-08-07T12:08:41;19.00;60.10
42421;DHT22;28063;48.140;11.588;2023-08-07T12:11:09;19.10;59.80
42421;DHT22;28063;48.140;11.588;2023-08-07T12:13:44;19.20;59.20
42421;DHT22;28063;48.140;11.588;2023-08-07T12:16:11;19.50;58.30
42421;DHT22;28063;48.140;11.588;2023-08-07T12:18:49;19.80;57.80
42421;DHT22;28063;48.140;11.588;2023-08-07T12:21:17;20.20;55.70
42421;DHT22;28063;48.140;11.588;2023-08-07T12:23:44;20.60;55.50
42421;DHT22;28063;48.140;11.588;2023-08-07T12:26:19;20.70;54.60
42421;DHT22;28063;48.140;11.588;2023-08-07T12:28:44;21.00;54.70
42421;DHT22;28063;48.140;11.588;2023-08-07T12:31:10;21.40;54.10
42421;DHT22;28063;48.140;11.588;2023-08-07T12:33:36;21.80;52.20
42421;DHT22;28063;48.140;11.588;2023-08-07T12:36:02;22.10;51.20
42421;DHT22;28063;48.140;11.588;2023-08-07T12:38:28;21.90;51.20
42421;DHT22;28063;48.140;11.588;2023-08-07T12:40:54;21.60;50.20
42421;DHT22;28063;48.140;11.588;2023-08-07T12:43:20;21.20;50.80
42421;DHT22;28063;48.140;11.588;2023-08-07T12:45:46;20.80;52.00
42421;DHT22;28063;48.140;11.588;2023-08-07T12:48:12;20.50;51.70
42421;DHT22;28063;48.140;11.588;2023-08-07T12:50:39;20.30;52.30
42421;DHT22;28063;48.140;11.588;2023-08-07T12:53:07;20.10;52.90
42421;DHT22;28063;48.140;11.588;2023-08-07T12:55:33;19.90;53.50
42421;DHT22;28063;48.140;11.588;2023-08-07T12:57:59;19.80;53.80
42421;DHT22;28063;48.140;11.588;2023-08-07T13:00:25;19.60;54.60
42421;DHT22;28063;48.140;11.588;2023-08-07T13:05:21;19.10;55.50
42421;DHT22;28063;48.140;11.588;2023-08-07T13:07:47;18.90;56.80
42421;DHT22;28063;48.140;11.588;2023-08-07T13:10:15;18.90;57.30
42421;DHT22;28063;48.140;11.588;2023-08-07T13:12:43;19.00;56.90
42421;DHT22;28063;48.140;11.588;2023-08-07T13:15:14;19.10;56.70
42421;DHT22;28063;48.140;11.588;2023-08-07T13:17:41;19.20;57.00
42421;DHT22;28063;48.140;11.588;2023-08-07T13:20:07;19.50;56.30
42421;DHT22;28063;48.140;11.588;2023-08-07T13:22:37;20.00;54.50
42421;DHT22;28063;48.140;11.588;2023-08-07T13:25:04;20.50;50.80
42421;DHT22;28063;48.140;11.588;2023-08-07T13:27:30;20.90;49.60
42421;DHT22;28063;48.140;11.588;2023-08-07T13:29:56;21.30;49.60
42421;DHT22;28063;48.140;11.588;2023-08-07T13:32:22;21.90;48.90
42421;DHT22;28063;48.140;11.588;2023-08-07T13:34:47;22.00;48.40
42421;DHT22;28063;48.140;11.588;2023-08-07T13:37:14;21.50;48.20
42421;DHT22;28063;48.140;11.588;2023-08-07T13:39:40;20.70;49.60
42421;DHT22;28063;48.140;11.588;2023-08-07T13:42:06;19.80;52.00
42421;DHT22;28063;48.140;11.588;2023-08-07T13:44:32;19.20;53.30
42421;DHT22;28063;48.140;11.588;2023-08-07T13:46:58;18.60;54.90
42421;DHT22;28063;48.140;11.588;2023-08-07T13:49:24;18.40;56.10
42421;DHT22;28063;48.140;11.588;2023-08-07T13:51:50;18.50;56.10
42421;DHT22;28063;48.140;11.588;2023-08-07T13:54:16;18.60;56.00
42421;DHT22;28063;48.140;11.588;2023-08-07T13:56:42;19.00;55.70
42421;DHT22;28063;48.140;11.588;2023-08-07T13:59:08;19.40;54.70
42421;DHT22;28063;48.140;11.588;2023-08-07T14:01:35;19.70;54.40
42421;DHT22;28063;48.140;11.588;2023-08-07T14:04:03;20.20;53.80
42421;DHT22;28063;48.140;11.588;2023-08-07T14:06:29;20.60;51.90
42421;DHT22;28063;48.140;11.588;2023-08-07T14:08:55;20.50;50.70
42421;DHT22;28063;48.140;11.588;2023-08-07T14:11:20;20.20;51.40
42421;DHT22;28063;48.140;11.588;2023-08-07T14:16:13;19.70;51.30
42421;DHT22;28063;48.140;11.588;2023-08-07T14:18:39;19.30;52.30
42421;DHT22;28063;48.140;11.588;2023-08-07T14:21:04;19.10;53.00
42421;DHT22;28063;48.140;11.588;2023-08-07T14:23:30;19.00;53.60
42421;DHT22;28063;48.140;11.588;2023-08-07T14:25:56;18.90;53.50
42421;DHT22;28063;48.140;11.588;2023-08-07T14:28:22;19.00;53.20
42421;DHT22;28063;48.140;11.588;2023-08-07T14:30:48;19.20;53.00
42421;DHT22;28063;48.140;11.588;2023-08-07T14:33:14;19.40;53.30
42421;DHT22;28063;48.140;11.588;2023-08-07T14:35:40;19.40;52.70
42421;DHT22;28063;48.140;11.588;2023-08-07T14:38:06;19.30;53.10
42421;DHT22;28063;48.140;11.588;2023-08-07T14:40:32;19.20;53.30
42421;DHT22;28063;48.140;11.588;2023-08-07T14:42:58;19.10;53.50
42421;DHT22;28063;48.140;11.588;2023-08-07T14:45:23;19.10;53.80
42421;DHT22;28063;48.140;11.588;2023-08-07T14:47:50;19.10;53.80
42421;DHT22;28063;48.140;11.588;2023-08-07T14:50:15;19.00;54.70
42421;DHT22;28063;48.140;11.588;2023-08-07T14:52:45;18.90;55.00
42421;DHT22;28063;48.140;11.588;2023-08-07T14:55:10;18.70;55.60
42421;DHT22;28063;48.140;11.588;2023-08-07T14:57:36;18.40;56.40
42421;DHT22;28063;48.140;11.588;2023-08-07T15:00:02;18.20;57.50
42421;DHT22;28063;48.140;11.588;2023-08-07T15:02:28;17.90;58.20
42421;DHT22;28063;48.140;11.588;2023-08-07T15:04:53;17.70;59.00
42421;DHT22;28063;48.140;11.588;2023-08-07T15:07:19;17.70;59.40
42421;DHT22;28063;48.140;11.588;2023-08-07T15:09:45;17.80;59.80
42421;DHT22;28063;48.140;11.588;2023-08-07T15:12:10;17.80;59.20
42421;DHT22;28063;48.140;11.588;2023-08-07T15:14:36;17.80;59.20
42421;DHT22;28063;48.140;11.588;2023-08-07T15:17:03;17.80;59.00
42421;DHT22;28063;48.140;11.588;2023-08-07T15:19:28;17.80;59.10
42421;DHT22;28063;48.140;11.588;2023-08-07T15:21:54;17.80;58.80
42421;DHT22;28063;48.140;11.588;2023-08-07T15:24:20;17.80;58.80
42421;DHT22;28063;48.140;11.588;2023-08-07T15:26:45;17.80;59.20
42421;DHT22;28063;48.140;11.588;2023-08-07T15:29:11;17.80;58.80
42421;DHT22;28063;48.140;11.588;2023-08-07T15:31:37;17.90;58.40
42421;DHT22;28063;48.140;11.588;2023-08-07T15:34:04;18.10;58.40
42421;DHT22;28063;48.140;11.588;2023-08-07T15:36:30;18.40;57.80
42421;DHT22;28063;48.140;11.588;2023-08-07T15:38:55;18.70;58.10
42421;DHT22;28063;48.140;11.588;2023-08-07T15:41:22;18.80;57.10
42421;DHT22;28063;48.140;11.588;2023-08-07T15:43:48;18.70;57.20